KFLL/FLL METAR and TAF weather

Enter ICAO airport designator
Station Type Date Time Source
KFLL METAR 2020/01/22 17:53 UTC NOAA

KFLL 221753Z 31013G24KT 10SM FEW050 BKN070 13/05 A3001 RMK AO2 SLP160 T01330050 10133 20039 56027 $


Station Type Date Time Source
KFLL Decoded METAR 2020/01/22 17:53 UTC NOAA

FORT LAUDERDALE/HOLLYWOOD, FL, United States (KFLL) 26-04N 080-09W 30M
Jan 22, 2020 - 12:53 PM EST / 2020.01.22 1753 UTC
Wind: from the NW (310 degrees) at 15 MPH (13 KT) gusting to 28 MPH (24 KT):0
Visibility: 10 mile(s):0
Sky conditions: mostly cloudy
Temperature: 55.9 F (13.3 C)
Dew Point: 41.0 F (5.0 C)
Relative Humidity: 57%
Pressure (altimeter): 30.01 in. Hg (1016 hPa)
Pressure tendency: 0.08 inches (2.7 hPa) lower than three hours ago
ob: KFLL 221753Z 31013G24KT 10SM FEW050 BKN070 13/05 A3001 RMK AO2 SLP160 T01330050 10133 20039 56027
cycle: 18

Station Type Date Time Source
KFLL TAF 2020/01/22 18:25 UTC NOAA

TAF KFLL 221720Z 2218/2324 32015G25KT P6SM SCT025 SCT250
FM230100 02012KT P6SM SCT035 SCT050
FM230600 04010KT P6SM SCT035 SCT050
FM231500 07012KT P6SM SCT035 SCT100

Example: see airport list